Time;durP1;ratioP1;P1;durP2;ratioP2;P2;SDS_P1;SDS_P2;PMS_P1;PMS_P2;Temp;Humidity;BMP_temperature;BMP_pressure;BME280_temperature;BME280_humidity;BME280_pressure;Samples;Min_cycle;Max_cycle;Signal;HPM_P1;HPM_P2
2023/01/10 00:00:28;;;;;;;9.10;3.20;;;;;;;-8.51;49.42;100636.87;79674;1294;3019189;-66
2023/01/10 00:02:56;;;;;;;9.40;3.80;;;;;;;-8.62;49.25;100634.95;78994;1294;3012124;-64
2023/01/10 00:05:23;;;;;;;7.10;3.00;;;;;;;-8.64;49.19;100640.15;79645;1297;3012998;-66
2023/01/10 00:07:50;;;;;;;5.70;3.00;;;;;;;-8.62;49.50;100642.95;79594;1295;3011853;-67
2023/01/10 00:10:18;;;;;;;5.20;3.00;;;;;;;-8.48;49.35;100654.84;78464;1297;3026254;-67
2023/01/10 00:15:32;;;;;;;4.80;2.10;;;;;;;-8.62;49.39;100664.01;78485;1294;3068796;-68
2023/01/10 00:17:59;;;;;;;4.30;2.30;;;;;;;-8.57;48.93;100658.75;79785;1296;3014828;-68
2023/01/10 00:20:26;;;;;;;4.10;2.50;;;;;;;-8.62;49.04;100651.29;79699;1294;3011518;-66
2023/01/10 00:22:54;;;;;;;3.10;1.90;;;;;;;-8.57;48.66;100654.02;78417;1295;3052294;-67
2023/01/10 00:25:21;;;;;;;2.50;1.50;;;;;;;-8.55;48.56;100659.34;79691;1297;3013037;-69
2023/01/10 00:27:49;;;;;;;5.70;2.00;;;;;;;-8.55;48.76;100651.17;79628;1295;3011466;-67
2023/01/10 00:30:17;;;;;;;3.50;1.80;;;;;;;-8.61;48.80;100652.84;78243;1297;3068589;-64
2023/01/10 00:32:45;;;;;;;5.00;2.00;;;;;;;-8.61;48.59;100642.30;79459;1295;3013054;-63
2023/01/10 00:35:11;;;;;;;4.20;2.60;;;;;;;-8.58;48.79;100646.16;79482;1295;3011743;-64
2023/01/10 00:37:39;;;;;;;3.80;2.00;;;;;;;-8.56;48.51;100641.64;78412;1297;3054135;-64
2023/01/10 00:40:08;;;;;;;2.90;2.10;;;;;;;-8.60;48.66;100635.89;79733;1297;3012957;-65
2023/01/10 00:45:23;;;;;;;5.00;1.70;;;;;;;-8.58;48.81;100640.58;78441;1297;3067357;-65
2023/01/10 00:47:51;;;;;;;3.60;2.10;;;;;;;-8.54;49.13;100649.16;79700;1295;3012765;-68
2023/01/10 00:50:17;;;;;;;3.50;1.50;;;;;;;-8.52;49.11;100652.96;79666;1295;3011521;-65
2023/01/10 00:52:45;;;;;;;2.10;1.30;;;;;;;-8.47;49.08;100653.16;78471;1295;3051188;-67
2023/01/10 00:55:11;;;;;;;4.00;2.20;;;;;;;-8.35;49.07;100656.44;79659;1297;3018540;-69
2023/01/10 00:57:38;;;;;;;4.50;1.60;;;;;;;-8.39;49.38;100666.18;79691;1295;3013202;-65
2023/01/10 01:00:08;;;;;;;9.30;2.20;;;;;;;-8.52;49.41;100666.56;78579;1294;3026253;-66
2023/01/10 01:02:35;;;;;;;6.40;2.50;;;;;;;-8.59;49.44;100657.83;82121;1293;3011120;-65
2023/01/10 01:05:04;;;;;;;5.90;2.00;;;;;;;-8.57;49.11;100648.74;81621;1293;3011228;-68
2023/01/10 01:07:32;;;;;;;3.40;1.60;;;;;;;-8.59;49.30;100649.35;82163;1294;3011470;-66
2023/01/10 01:12:46;;;;;;;6.30;1.90;;;;;;;-8.48;48.92;100657.22;80913;1293;3051563;-64
2023/01/10 01:15:12;;;;;;;3.40;1.70;;;;;;;-8.56;49.10;100668.14;82155;1295;3012672;-68
2023/01/10 01:17:39;;;;;;;9.70;2.00;;;;;;;-8.53;48.93;100672.00;82149;1293;3011201;-63
2023/01/10 01:20:07;;;;;;;5.80;2.10;;;;;;;-8.44;48.62;100669.05;80916;1294;3025551;-65
2023/01/10 01:22:34;;;;;;;6.30;1.80;;;;;;;-8.44;48.59;100671.27;82156;1293;3011448;-64
2023/01/10 01:25:03;;;;;;;4.70;1.70;;;;;;;-8.35;48.18;100670.89;82133;1293;3011028;-63
2023/01/10 01:27:31;;;;;;;3.60;1.70;;;;;;;-8.29;48.18;100673.15;80917;1294;3051659;-63
2023/01/10 01:29:57;;;;;;;4.40;1.50;;;;;;;-8.29;47.88;100679.42;82171;1294;3012491;-64
2023/01/10 01:32:24;;;;;;;4.20;1.80;;;;;;;-8.20;48.09;100686.71;82092;1294;3011181;-66
2023/01/10 01:34:54;;;;;;;3.40;1.50;;;;;;;-8.30;47.57;100684.85;80856;1294;3056186;-63
2023/01/10 01:37:21;;;;;;;9.80;2.00;;;;;;;-8.37;47.63;100683.26;82169;1294;3012496;-66
2023/01/10 01:39:47;;;;;;;6.20;1.80;;;;;;;-8.42;48.08;100691.73;82131;1294;3011298;-64
2023/01/10 01:42:24;;;;;;;6.50;2.40;;;;;;;-8.41;47.67;100692.29;80890;1293;3052310;-63
2023/01/10 01:45:23;;;;;;;4.30;2.00;;;;;;;-8.34;47.78;100686.91;81547;1297;3011187;-64
2023/01/10 01:47:55;;;;;;;2.80;1.50;;;;;;;-8.34;47.16;100683.83;80853;1294;3053349;-63
2023/01/10 01:50:27;;;;;;;8.40;2.40;;;;;;;-8.36;47.09;100691.27;82117;1294;3011030;-64
2023/01/10 01:52:56;;;;;;;8.10;2.10;;;;;;;-8.33;47.99;100690.34;80741;1294;3052217;-63
2023/01/10 01:55:23;;;;;;;5.40;1.90;;;;;;;-8.34;47.83;100684.85;82085;1294;3012718;-64
2023/01/10 01:57:50;;;;;;;4.00;1.80;;;;;;;-8.32;47.43;100683.94;82041;1294;3011211;-66
2023/01/10 02:00:18;;;;;;;4.00;1.90;;;;;;;-8.32;47.66;100683.42;80802;1294;3048100;-64
2023/01/10 02:02:52;;;;;;;4.00;2.00;;;;;;;-8.40;47.80;100674.80;82143;1293;3012466;-68
2023/01/10 02:05:21;;;;;;;6.60;2.70;;;;;;;-8.41;47.91;100674.25;80800;1293;3069993;-69
2023/01/10 02:07:51;;;;;;;5.30;1.90;;;;;;;-8.38;47.75;100679.98;82079;1294;3011688;-68
2023/01/10 02:10:52;;;;;;;7.00;2.10;;;;;;;-8.33;47.67;100689.15;80891;1293;3048350;-69
2023/01/10 02:13:22;;;;;;;4.10;1.70;;;;;;;-8.29;47.63;100676.17;80758;1294;3052672;-66
2023/01/10 02:15:49;;;;;;;5.30;1.90;;;;;;;-8.33;47.92;100669.94;81997;1294;3011319;-67
2023/01/10 02:18:16;;;;;;;9.00;2.10;;;;;;;-8.35;48.19;100665.98;82179;1293;3011390;-68
2023/01/10 02:21:08;;;;;;;3.80;1.70;;;;;;;-8.44;47.92;100655.47;80877;1293;3067497;-66
2023/01/10 02:23:51;;;;;;;3.20;1.10;;;;;;;-8.62;47.33;100644.32;80860;1294;3052100;-66
2023/01/10 02:26:38;;;;;;;3.70;2.10;;;;;;;-8.67;47.71;100644.82;80869;1294;3056052;-65
2023/01/10 02:29:32;;;;;;;2.90;1.90;;;;;;;-8.68;47.89;100634.58;80872;1293;3049468;-67
2023/01/10 02:32:26;;;;;;;3.50;1.70;;;;;;;-8.62;47.90;100633.62;80637;1295;3053042;-67
2023/01/10 02:35:07;;;;;;;6.40;2.20;;;;;;;-8.54;48.22;100626.73;80798;1294;3049259;-63
2023/01/10 02:37:53;;;;;;;5.40;1.70;;;;;;;-8.58;48.11;100622.52;80807;1294;3053019;-62
2023/01/10 02:40:39;;;;;;;4.30;2.20;;;;;;;-8.55;48.12;100625.34;80797;1298;3052318;-67
2023/01/10 02:43:17;;;;;;;5.30;2.00;;;;;;;-8.40;47.95;100631.64;80894;1294;3069180;-69
2023/01/10 02:45:56;;;;;;;4.30;1.90;;;;;;;-8.44;48.61;100635.74;80832;1293;3051415;-67
2023/01/10 02:48:24;;;;;;;5.10;2.10;;;;;;;-8.38;48.63;100634.39;80870;1293;3056619;-67
2023/01/10 02:50:57;;;;;;;5.20;2.50;;;;;;;-8.41;48.70;100625.14;82114;1293;3017958;-66
2023/01/10 02:53:29;;;;;;;3.80;1.90;;;;;;;-8.39;48.22;100625.54;80826;1294;3048995;-64
2023/01/10 02:56:18;;;;;;;5.30;2.40;;;;;;;-8.45;48.35;100616.15;82079;1293;3011281;-65
2023/01/10 02:59:01;;;;;;;4.90;2.40;;;;;;;-8.50;48.32;100621.10;80857;1293;3052619;-66
2023/01/10 03:01:41;;;;;;;5.40;1.90;;;;;;;-8.45;48.34;100622.13;80878;1293;3067344;-65
2023/01/10 03:04:31;;;;;;;3.00;1.90;;;;;;;-8.44;48.29;100622.67;80882;1294;3051207;-64
2023/01/10 03:07:18;;;;;;;3.10;1.50;;;;;;;-8.48;48.21;100614.38;80726;1293;3056161;-66
2023/01/10 03:09:58;;;;;;;2.60;1.70;;;;;;;-8.46;47.84;100610.17;80848;1293;3048888;-66
2023/01/10 03:12:32;;;;;;;4.50;2.10;;;;;;;-8.49;48.51;100608.42;80874;1294;3051507;-66
2023/01/10 03:14:59;;;;;;;8.30;2.00;;;;;;;-8.48;48.64;100599.07;82072;1295;3011472;-65
2023/01/10 03:17:26;;;;;;;3.90;1.90;;;;;;;-8.51;48.68;100592.54;80843;1294;3052607;-66
2023/01/10 03:19:55;;;;;;;6.00;2.30;;;;;;;-8.49;48.92;100591.42;82145;1293;3018072;-65
2023/01/10 03:22:23;;;;;;;5.20;2.40;;;;;;;-8.56;49.19;100588.80;81988;1294;3011291;-64
2023/01/10 03:24:52;;;;;;;4.40;2.20;;;;;;;-8.50;48.98;100594.61;80878;1293;3055120;-64
2023/01/10 03:27:22;;;;;;;3.20;1.40;;;;;;;-8.57;48.90;100588.42;82131;1294;3011072;-65
2023/01/10 03:29:54;;;;;;;4.00;2.20;;;;;;;-8.59;49.64;100588.52;80776;1294;3026532;-66
2023/01/10 03:32:23;;;;;;;3.90;1.90;;;;;;;-8.67;49.60;100593.66;82043;1294;3011284;-64
2023/01/10 03:34:51;;;;;;;4.90;2.00;;;;;;;-8.80;49.55;100583.86;80810;1294;3050137;-64
2023/01/10 03:37:20;;;;;;;4.50;1.70;;;;;;;-8.78;49.79;100594.16;82168;1294;3018658;-62
2023/01/10 03:39:57;;;;;;;4.40;2.20;;;;;;;-8.84;50.17;100595.79;81556;1294;3011390;-64
2023/01/10 03:42:27;;;;;;;3.30;1.90;;;;;;;-8.72;50.09;100592.99;80747;1295;3052472;-63
2023/01/10 03:45:09;;;;;;;6.90;3.30;;;;;;;-8.77;50.23;100586.52;82056;1294;3012543;-63
2023/01/10 03:47:44;;;;;;;3.70;2.20;;;;;;;-8.77;50.06;100602.34;80815;1294;3049725;-65
2023/01/10 03:50:22;;;;;;;5.30;1.90;;;;;;;-8.69;50.00;100608.72;80818;1294;3053635;-65
2023/01/10 03:52:52;;;;;;;5.50;2.00;;;;;;;-8.82;50.00;100610.97;81449;1295;3011263;-65
2023/01/10 03:55:21;;;;;;;5.30;2.50;;;;;;;-8.83;50.45;100613.33;82120;1294;3012639;-66
2023/01/10 03:57:49;;;;;;;11.00;2.70;;;;;;;-8.81;49.99;100606.77;81490;1296;3011478;-64
2023/01/10 04:00:16;;;;;;;4.50;1.90;;;;;;;-8.75;50.20;100604.95;82147;1294;3012960;-67
2023/01/10 04:02:43;;;;;;;3.70;1.60;;;;;;;-8.74;49.55;100606.16;82091;1294;3011185;-63
2023/01/10 04:05:11;;;;;;;7.50;2.40;;;;;;;-8.77;50.11;100609.30;80887;1294;3026124;-66
2023/01/10 04:07:38;;;;;;;8.00;2.60;;;;;;;-8.87;50.27;100609.64;82138;1294;3012970;-64
2023/01/10 04:10:05;;;;;;;6.30;2.00;;;;;;;-8.83;50.38;100604.48;82116;1295;3011428;-65
2023/01/10 04:12:33;;;;;;;4.40;2.40;;;;;;;-8.76;50.54;100611.55;80877;1293;3051498;-66
2023/01/10 04:15:01;;;;;;;5.10;2.10;;;;;;;-8.70;50.29;100616.50;82149;1297;3012827;-66
2023/01/10 04:17:28;;;;;;;4.40;2.00;;;;;;;-8.80;50.34;100616.14;82119;1293;3011932;-66
2023/01/10 04:19:55;;;;;;;6.20;2.50;;;;;;;-8.79;50.29;100624.85;80846;1293;3055302;-63
2023/01/10 04:22:22;;;;;;;5.10;2.10;;;;;;;-8.67;50.36;100621.88;82164;1293;3012659;-67
2023/01/10 04:24:50;;;;;;;4.20;2.10;;;;;;;-8.76;50.08;100621.39;82096;1294;3011333;-68
2023/01/10 04:27:19;;;;;;;10.60;2.80;;;;;;;-8.68;50.22;100626.45;80879;1293;3052517;-66
2023/01/10 04:29:45;;;;;;;7.90;2.40;;;;;;;-8.56;49.45;100629.39;82133;1297;3012874;-65
2023/01/10 04:32:12;;;;;;;7.10;2.50;;;;;;;-8.55;49.57;100624.52;82123;1293;3011148;-68
2023/01/10 04:34:41;;;;;;;4.80;1.90;;;;;;;-8.48;49.03;100617.63;80869;1293;3056427;-67
2023/01/10 04:37:07;;;;;;;6.20;3.20;;;;;;;-8.49;49.20;100616.73;82127;1294;3012820;-65
2023/01/10 04:39:34;;;;;;;5.90;2.00;;;;;;;-8.57;49.17;100616.44;82116;1295;3011290;-68
2023/01/10 04:42:02;;;;;;;4.00;2.30;;;;;;;-8.48;49.31;100622.02;80898;1293;3025389;-69
2023/01/10 04:44:29;;;;;;;7.00;2.10;;;;;;;-8.54;48.73;100625.88;82150;1293;3013213;-67
2023/01/10 04:46:55;;;;;;;6.30;2.40;;;;;;;-8.47;48.75;100630.90;82101;1297;3011064;-67
2023/01/10 04:49:23;;;;;;;6.20;2.20;;;;;;;-8.47;48.58;100636.48;80893;1294;3025618;-67
2023/01/10 04:51:50;;;;;;;3.60;2.20;;;;;;;-8.43;48.74;100635.44;82131;1293;3013193;-66
2023/01/10 04:54:19;;;;;;;5.40;2.30;;;;;;;-8.33;48.76;100632.19;82118;1294;3011238;-69
2023/01/10 04:56:48;;;;;;;9.50;2.70;;;;;;;-8.31;48.23;100638.39;80888;1294;3051220;-67
2023/01/10 04:59:15;;;;;;;8.90;2.60;;;;;;;-8.19;48.45;100648.14;82174;1294;3012471;-65
2023/01/10 05:01:42;;;;;;;6.60;2.70;;;;;;;-8.22;48.37;100643.81;82190;1294;3011261;-65
2023/01/10 05:04:10;;;;;;;5.30;2.90;;;;;;;-8.28;48.59;100646.48;80852;1293;3056296;-64
2023/01/10 05:06:39;;;;;;;2.80;2.10;;;;;;;-8.21;47.96;100649.61;82137;1294;3012725;-67
2023/01/10 05:09:06;;;;;;;11.30;2.60;;;;;;;-8.20;48.36;100645.73;82132;1293;3011262;-65
2023/01/10 05:11:34;;;;;;;6.90;2.80;;;;;;;-8.20;48.54;100645.56;80874;1294;3052249;-66
2023/01/10 05:14:01;;;;;;;3.90;2.70;;;;;;;-8.28;48.46;100647.52;82159;1294;3012708;-65
2023/01/10 05:16:27;;;;;;;6.60;2.90;;;;;;;-8.25;48.84;100650.48;82121;1295;3011203;-66
2023/01/10 05:18:55;;;;;;;5.60;2.30;;;;;;;-8.21;48.52;100646.38;80877;1294;3026393;-65
2023/01/10 05:21:22;;;;;;;4.40;2.30;;;;;;;-8.18;48.51;100643.44;82132;1294;3012676;-66
2023/01/10 05:23:48;;;;;;;11.40;2.90;;;;;;;-8.20;48.30;100642.34;82107;1294;3011300;-67
2023/01/10 05:26:19;;;;;;;5.50;2.60;;;;;;;-8.25;48.41;100647.11;80868;1295;3026203;-64
2023/01/10 05:28:46;;;;;;;9.40;3.00;;;;;;;-8.12;48.77;100656.56;82121;1294;3011347;-65
2023/01/10 05:31:16;;;;;;;4.60;2.70;;;;;;;-8.18;48.46;100660.92;81570;1295;3011380;-66
2023/01/10 05:33:44;;;;;;;4.80;2.90;;;;;;;-8.18;48.48;100656.16;82144;1294;3011355;-65
2023/01/10 05:36:13;;;;;;;5.90;2.70;;;;;;;-8.20;48.53;100651.84;81579;1294;3011119;-67
2023/01/10 05:38:40;;;;;;;7.70;2.30;;;;;;;-8.22;48.67;100652.98;82145;1293;3012497;-67
2023/01/10 05:41:07;;;;;;;6.50;2.40;;;;;;;-8.22;48.79;100657.05;82102;1295;3011408;-68
2023/01/10 05:43:35;;;;;;;7.80;3.00;;;;;;;-8.14;48.72;100656.30;80879;1294;3026988;-66
2023/01/10 05:46:01;;;;;;;5.00;2.30;;;;;;;-8.20;48.56;100660.17;82162;1295;3017976;-66
2023/01/10 05:48:28;;;;;;;6.80;2.50;;;;;;;-8.18;48.19;100672.68;82069;1294;3011198;-67
2023/01/10 05:50:56;;;;;;;5.30;2.20;;;;;;;-8.13;48.17;100669.76;80835;1294;3027072;-66
2023/01/10 05:53:23;;;;;;;12.90;2.80;;;;;;;-8.15;48.32;100669.37;82142;1293;3012452;-67
2023/01/10 05:55:56;;;;;;;8.50;2.80;;;;;;;-8.06;48.24;100669.16;82096;1293;3011321;-68
2023/01/10 05:58:24;;;;;;;6.90;3.10;;;;;;;-8.02;48.17;100667.59;80861;1297;3051575;-67
2023/01/10 06:00:51;;;;;;;5.70;2.90;;;;;;;-7.99;47.57;100674.50;82133;1294;3019470;-67
2023/01/10 06:03:17;;;;;;;10.40;2.60;;;;;;;-8.03;47.96;100676.41;82149;1295;3011232;-67
2023/01/10 06:05:46;;;;;;;5.30;2.50;;;;;;;-7.92;47.74;100685.63;80876;1294;3056030;-67
2023/01/10 06:08:13;;;;;;;6.60;2.80;;;;;;;-7.82;47.28;100684.92;82155;1293;3012816;-65
2023/01/10 06:10:41;;;;;;;6.30;2.00;;;;;;;-7.84;47.32;100675.84;82131;1294;3011399;-65
2023/01/10 06:13:13;;;;;;;6.40;2.30;;;;;;;-7.92;47.36;100681.02;80863;1294;3052839;-65
2023/01/10 06:15:40;;;;;;;4.50;2.20;;;;;;;-7.89;47.20;100685.03;82155;1295;3013902;-67
2023/01/10 06:18:06;;;;;;;6.60;2.70;;;;;;;-7.86;47.54;100693.12;82131;1293;3011270;-65
2023/01/10 06:20:35;;;;;;;6.00;2.90;;;;;;;-7.87;47.27;100694.63;80842;1295;3026473;-63
2023/01/10 06:23:21;;;;;;;5.30;2.60;;;;;;;-7.89;46.89;100693.38;80893;1293;3050137;-66
2023/01/10 06:25:48;;;;;;;18.90;2.50;;;;;;;-7.87;47.09;100693.95;82148;1294;3012766;-65
2023/01/10 06:28:14;;;;;;;7.70;3.00;;;;;;;-7.90;47.09;100699.13;82118;1295;3011151;-64
2023/01/10 06:30:43;;;;;;;4.40;2.60;;;;;;;-7.81;46.88;100704.52;80866;1295;3051377;-65
2023/01/10 06:33:09;;;;;;;6.30;2.70;;;;;;;-7.83;46.57;100708.21;82138;1293;3012722;-65
2023/01/10 06:35:36;;;;;;;13.60;3.50;;;;;;;-7.83;46.38;100709.75;82149;1294;3011144;-65
2023/01/10 06:38:04;;;;;;;7.90;2.70;;;;;;;-7.73;46.38;100710.58;80851;1293;3025773;-64
2023/01/10 06:40:30;;;;;;;7.00;2.60;;;;;;;-7.65;46.78;100704.23;82122;1294;3012551;-64
2023/01/10 06:42:58;;;;;;;5.50;2.80;;;;;;;-7.68;46.45;100705.11;82120;1294;3011260;-65
2023/01/10 06:45:26;;;;;;;8.50;3.30;;;;;;;-7.60;46.65;100714.77;80866;1295;3051611;-68
2023/01/10 06:47:52;;;;;;;5.80;2.80;;;;;;;-7.59;46.30;100710.88;82106;1294;3012863;-68
2023/01/10 06:50:19;;;;;;;6.40;2.60;;;;;;;-7.65;46.53;100710.00;82084;1294;3011421;-65
2023/01/10 06:53:05;;;;;;;6.40;2.40;;;;;;;-7.57;46.49;100712.28;80828;1295;3025784;-65
2023/01/10 06:55:32;;;;;;;4.60;2.40;;;;;;;-7.51;45.82;100714.88;80820;1294;3052407;-64
2023/01/10 06:58:01;;;;;;;4.10;1.90;;;;;;;-7.57;46.23;100706.69;82113;1294;3012811;-62
2023/01/10 07:00:28;;;;;;;5.00;2.70;;;;;;;-7.44;45.74;100709.46;82089;1295;3011468;-66
2023/01/10 07:02:59;;;;;;;9.80;3.00;;;;;;;-7.40;45.84;100717.12;80841;1294;3068190;-60
2023/01/10 07:05:28;;;;;;;6.90;2.60;;;;;;;-7.35;45.86;100713.70;82084;1294;3011358;-68
2023/01/10 07:07:57;;;;;;;3.50;2.40;;;;;;;-7.24;45.34;100714.89;80838;1294;3055780;-62
2023/01/10 07:10:24;;;;;;;6.90;2.70;;;;;;;-7.01;45.53;100714.41;82091;1294;3011402;-67
2023/01/10 07:12:53;;;;;;;4.50;2.00;;;;;;;-7.10;44.97;100717.88;82094;1294;3011100;-67
2023/01/10 07:15:25;;;;;;;5.30;2.30;;;;;;;-7.01;44.72;100728.88;80815;1295;3052502;-71
2023/01/10 07:17:51;;;;;;;4.90;2.00;;;;;;;-6.86;44.82;100726.42;82137;1293;3012759;-65
2023/01/10 07:20:18;;;;;;;6.30;2.30;;;;;;;-6.67;44.49;100729.21;82080;1295;3011296;-60
2023/01/10 07:22:53;;;;;;;6.70;2.40;;;;;;;-6.69;44.15;100726.77;80803;1295;3056499;-66
2023/01/10 07:25:23;;;;;;;5.20;2.50;;;;;;;-6.66;44.13;100724.64;81485;1293;3011178;-65
2023/01/10 07:27:49;;;;;;;6.40;2.50;;;;;;;-6.58;43.95;100724.88;82119;1293;3012851;-65
2023/01/10 07:30:16;;;;;;;5.40;2.60;;;;;;;-6.56;44.06;100718.29;82083;1295;3011386;-66
2023/01/10 07:32:44;;;;;;;4.90;2.50;;;;;;;-6.54;43.68;100718.35;80851;1294;3050767;-65
2023/01/10 07:35:12;;;;;;;6.30;2.70;;;;;;;-6.39;43.19;100720.30;82158;1295;3012740;-64
2023/01/10 07:37:38;;;;;;;4.90;2.40;;;;;;;-6.54;42.96;100718.86;82121;1295;3011528;-67
2023/01/10 07:40:07;;;;;;;13.30;2.80;;;;;;;-6.62;42.87;100722.70;80833;1293;3055948;-65
2023/01/10 07:42:34;;;;;;;6.30;2.10;;;;;;;-6.57;43.37;100724.24;82106;1294;3011261;-68
2023/01/10 07:45:01;;;;;;;4.10;2.30;;;;;;;-6.47;43.25;100720.27;82146;1293;3011050;-65
2023/01/10 07:47:29;;;;;;;6.00;2.00;;;;;;;-6.33;42.87;100721.85;80857;1295;3052840;-66
2023/01/10 07:49:56;;;;;;;7.10;2.80;;;;;;;-6.27;42.96;100727.63;82133;1294;3018033;-64
2023/01/10 07:52:22;;;;;;;4.30;2.30;;;;;;;-6.22;42.55;100735.96;82158;1294;3011187;-66
2023/01/10 07:54:50;;;;;;;7.80;2.50;;;;;;;-6.09;42.46;100733.07;80814;1294;3026481;-63
2023/01/10 07:57:20;;;;;;;5.10;2.60;;;;;;;-5.94;41.87;100736.36;82033;1294;3011372;-64
2023/01/10 07:59:48;;;;;;;6.00;2.30;;;;;;;-5.82;42.76;100734.77;80836;1294;3025940;-64
2023/01/10 08:02:15;;;;;;;5.20;2.30;;;;;;;-5.54;41.90;100748.48;82117;1294;3013224;-62
2023/01/10 08:04:43;;;;;;;7.40;2.50;;;;;;;-5.45;41.96;100744.42;82133;1294;3011392;-65
2023/01/10 08:07:11;;;;;;;3.80;2.10;;;;;;;-5.39;41.95;100745.79;80822;1295;3068862;-65
2023/01/10 08:09:38;;;;;;;4.30;2.30;;;;;;;-5.37;41.58;100754.88;82128;1294;3012515;-68
2023/01/10 08:12:04;;;;;;;4.40;2.40;;;;;;;-5.49;40.89;100752.19;82149;1293;3011323;-66
2023/01/10 08:14:32;;;;;;;4.30;2.20;;;;;;;-5.41;41.13;100750.67;80865;1294;3026114;-65
2023/01/10 08:16:59;;;;;;;5.20;2.60;;;;;;;-5.35;40.88;100755.61;82112;1295;3012624;-67
2023/01/10 08:19:26;;;;;;;5.50;2.50;;;;;;;-5.52;41.03;100754.70;82126;1293;3011257;-67
2023/01/10 08:21:54;;;;;;;5.90;2.80;;;;;;;-5.40;41.02;100763.50;80860;1293;3026501;-68
2023/01/10 08:24:20;;;;;;;9.00;3.60;;;;;;;-5.34;40.84;100756.82;82160;1295;3018034;-66
2023/01/10 08:26:48;;;;;;;6.70;2.70;;;;;;;-5.27;40.54;100751.89;82121;1293;3011281;-69
2023/01/10 08:29:16;;;;;;;8.10;2.80;;;;;;;-5.07;40.43;100753.88;80835;1295;3052972;-71
2023/01/10 08:31:43;;;;;;;4.60;2.50;;;;;;;-4.99;40.74;100763.83;82123;1295;3011325;-71
2023/01/10 08:34:11;;;;;;;7.70;2.90;;;;;;;-4.86;40.44;100764.12;82123;1295;3011250;-71
2023/01/10 08:36:39;;;;;;;10.50;2.40;;;;;;;-4.93;40.89;100760.52;80846;1293;3068275;-64
2023/01/10 08:39:06;;;;;;;6.60;2.60;;;;;;;-4.88;40.22;100758.61;82099;1297;3013031;-66
2023/01/10 08:41:33;;;;;;;11.60;4.20;;;;;;;-4.88;39.81;100764.73;82080;1295;3011336;-68
2023/01/10 08:44:00;;;;;;;4.80;2.40;;;;;;;-4.85;39.94;100760.72;80816;1294;3026775;-67
2023/01/10 08:46:27;;;;;;;6.30;2.40;;;;;;;-4.66;39.65;100766.27;82056;1299;3019382;-64
2023/01/10 08:48:53;;;;;;;6.40;2.70;;;;;;;-4.55;39.54;100760.36;82056;1294;3011375;-67
2023/01/10 08:51:21;;;;;;;7.20;3.00;;;;;;;-4.44;40.11;100751.35;80815;1295;3026399;-66
2023/01/10 08:53:48;;;;;;;9.60;2.20;;;;;;;-4.38;39.82;100746.35;82051;1294;3018657;-66
2023/01/10 08:56:14;;;;;;;6.90;3.00;;;;;;;-4.35;39.50;100747.42;82077;1294;3011643;-67
2023/01/10 08:58:42;;;;;;;6.50;2.60;;;;;;;-4.37;39.68;100749.97;80783;1294;3025749;-67
2023/01/10 09:01:10;;;;;;;6.70;2.60;;;;;;;-4.39;40.00;100746.99;82090;1294;3012489;-67
2023/01/10 09:03:38;;;;;;;4.10;2.30;;;;;;;-4.39;39.68;100745.81;82035;1298;3011216;-67
2023/01/10 09:06:07;;;;;;;8.10;2.80;;;;;;;-4.34;39.66;100747.63;80831;1294;3068480;-69
2023/01/10 09:08:34;;;;;;;7.30;3.00;;;;;;;-4.16;39.21;100741.66;82105;1295;3013129;-64
2023/01/10 09:11:01;;;;;;;7.20;3.20;;;;;;;-4.10;39.39;100743.14;82091;1295;3011480;-67
2023/01/10 09:13:30;;;;;;;6.80;3.10;;;;;;;-4.15;39.14;100743.56;80863;1294;3052225;-71
2023/01/10 09:15:57;;;;;;;5.70;3.00;;;;;;;-4.09;39.38;100746.07;82137;1297;3019123;-73
2023/01/10 09:18:24;;;;;;;5.10;2.10;;;;;;;-4.05;39.13;100743.92;82104;1297;3011408;-66
2023/01/10 09:20:52;;;;;;;8.00;2.80;;;;;;;-4.05;38.90;100732.45;80849;1294;3069026;-67
2023/01/10 09:23:20;;;;;;;6.40;2.50;;;;;;;-4.12;38.46;100730.44;82125;1295;3013041;-67
2023/01/10 09:25:48;;;;;;;4.50;2.40;;;;;;;-3.93;38.66;100733.02;82142;1295;3011454;-67
2023/01/10 09:28:16;;;;;;;4.30;2.40;;;;;;;-3.81;38.81;100728.80;80812;1295;3053001;-68
2023/01/10 09:30:44;;;;;;;7.10;2.80;;;;;;;-3.84;38.91;100724.13;82072;1296;3012532;-71
2023/01/10 09:33:10;;;;;;;7.60;2.90;;;;;;;-3.70;38.63;100730.01;82109;1297;3011325;-70
2023/01/10 09:35:40;;;;;;;7.30;2.40;;;;;;;-3.58;38.92;100723.38;80896;1294;3067570;-69
2023/01/10 09:38:09;;;;;;;7.00;2.30;;;;;;;-3.71;38.44;100711.32;82182;1295;3018117;-69
2023/01/10 09:40:39;;;;;;;6.50;2.00;;;;;;;-3.61;38.06;100720.08;82119;1293;3011564;-69
2023/01/10 09:43:13;;;;;;;5.30;2.80;;;;;;;-3.57;38.49;100715.86;80855;1297;3054010;-68
2023/01/10 09:45:47;;;;;;;5.60;2.60;;;;;;;-3.62;38.37;100709.79;81563;1294;3011913;-66
2023/01/10 09:48:26;;;;;;;5.20;2.80;;;;;;;-3.73;38.44;100703.08;82131;1294;3011175;-70
2023/01/10 09:51:13;;;;;;;10.80;3.30;;;;;;;-3.67;38.49;100700.27;80850;1298;3051747;-69
2023/01/10 09:53:41;;;;;;;8.00;2.90;;;;;;;-3.79;38.14;100692.52;80870;1297;3051174;-71
2023/01/10 09:56:08;;;;;;;7.40;2.80;;;;;;;-3.73;38.06;100689.55;82044;1295;3012768;-74
2023/01/10 09:58:35;;;;;;;7.40;3.00;;;;;;;-3.52;38.28;100685.11;82137;1295;3011104;-69
2023/01/10 10:01:15;;;;;;;10.30;3.50;;;;;;;-3.54;38.26;100686.79;80896;1294;3048364;-66
2023/01/10 10:04:10;;;;;;;12.50;3.60;;;;;;;-3.36;38.53;100686.22;79282;1294;4454059;-72
2023/01/10 10:06:38;;;;;;;7.10;2.80;;;;;;;-3.39;38.52;100682.74;80840;1296;3050187;-68
2023/01/10 10:09:05;;;;;;;8.30;3.10;;;;;;;-3.28;38.18;100685.65;82114;1298;3012974;-62
2023/01/10 10:12:15;;;;;;;8.20;3.10;;;;;;;-3.17;38.10;100678.95;82029;1295;3011714;-67
2023/01/10 10:15:22;;;;;;;11.50;2.80;;;;;;;-3.12;38.23;100677.50;80741;1295;3050587;-70
2023/01/10 10:17:53;;;;;;;5.90;3.00;;;;;;;-3.11;38.03;100675.10;80822;1295;3058326;-68
2023/01/10 10:20:22;;;;;;;8.40;2.90;;;;;;;-2.96;38.55;100672.06;82099;1295;3011661;-67
2023/01/10 10:22:50;;;;;;;5.80;2.00;;;;;;;-2.89;38.46;100665.47;80789;1296;3052505;-66
2023/01/10 10:25:19;;;;;;;6.50;2.40;;;;;;;-2.78;37.87;100666.82;82139;1294;3017972;-68
2023/01/10 10:27:58;;;;;;;6.10;2.70;;;;;;;-2.82;38.15;100659.39;81605;1295;3012340;-68
2023/01/10 10:31:02;;;;;;;4.90;2.70;;;;;;;-2.88;38.05;100655.19;80806;1298;3051731;-68
2023/01/10 10:33:36;;;;;;;9.50;2.40;;;;;;;-2.90;37.78;100657.05;80799;1295;3069222;-69
2023/01/10 10:36:08;;;;;;;7.90;2.90;;;;;;;-2.79;38.24;100665.08;82108;1293;3011432;-66
2023/01/10 10:38:37;;;;;;;9.30;2.90;;;;;;;-2.66;38.64;100660.45;80828;1295;3056594;-71
2023/01/10 10:41:04;;;;;;;6.50;2.60;;;;;;;-2.68;38.68;100663.34;81970;1293;3011601;-66
2023/01/10 10:43:34;;;;;;;6.10;2.50;;;;;;;-2.72;38.35;100659.50;81480;1296;3011336;-65
2023/01/10 10:46:08;;;;;;;6.40;2.60;;;;;;;-2.60;38.76;100659.31;82066;1295;3012919;-64
2023/01/10 10:48:46;;;;;;;6.70;2.60;;;;;;;-2.73;38.24;100667.04;80823;1298;3051672;-65
2023/01/10 10:51:24;;;;;;;7.00;2.60;;;;;;;-2.63;38.27;100666.31;81987;1296;3011552;-64
2023/01/10 10:53:53;;;;;;;10.00;2.70;;;;;;;-2.67;38.41;100674.67;80727;1301;3051478;-65
2023/01/10 10:56:20;;;;;;;9.20;2.60;;;;;;;-2.61;38.65;100675.96;82004;1294;3011441;-65
2023/01/10 10:58:48;;;;;;;7.60;2.20;;;;;;;-2.65;38.50;100671.27;82093;1296;3011852;-67
2023/01/10 11:01:16;;;;;;;9.60;3.00;;;;;;;-2.69;38.49;100668.30;80763;1295;3049710;-69
2023/01/10 11:03:45;;;;;;;7.10;3.00;;;;;;;-2.58;38.56;100672.55;81975;1301;3012469;-65
2023/01/10 11:06:14;;;;;;;4.50;1.80;;;;;;;-2.57;38.45;100674.63;81577;1295;3011795;-65
2023/01/10 11:08:43;;;;;;;4.20;2.10;;;;;;;-2.53;38.18;100680.34;82058;1298;3011295;-68
2023/01/10 11:11:16;;;;;;;4.80;2.20;;;;;;;-2.44;38.26;100680.29;82075;1295;3011516;-68
2023/01/10 11:13:52;;;;;;;4.80;1.60;;;;;;;-2.55;38.05;100679.63;80762;1294;3049403;-65
2023/01/10 11:16:37;;;;;;;6.30;1.90;;;;;;;-2.64;38.25;100683.11;80782;1295;3052217;-65
2023/01/10 11:19:18;;;;;;;3.80;1.90;;;;;;;-2.68;38.74;100690.77;80821;1295;3049389;-65
2023/01/10 11:21:54;;;;;;;5.50;2.40;;;;;;;-2.61;38.63;100688.30;80862;1295;3052281;-64
2023/01/10 11:25:28;;;;;;;5.20;2.50;;;;;;;-2.39;38.58;100697.83;80603;1293;3011942;-63
2023/01/10 11:27:56;;;;;;;8.40;2.90;;;;;;;-2.49;38.84;100693.77;79604;1301;3012827;-64
2023/01/10 11:30:30;;;;;;;6.00;2.10;;;;;;;-2.50;38.58;100699.08;79250;1300;3013352;-64
2023/01/10 11:33:03;;;;;;;6.40;2.50;;;;;;;-2.29;38.61;100697.61;78398;1298;3052504;-65